OISY

Yasuj Airport

Airport
ICAO code
OISY
IATA Code
YES
Summary
ICAO Region
MID
ICAO Territory
Location

Balahzar, Kohgiluyeh and Boyer-Ahmad Province

Serving
Yasuj
Elevation
5939 ft
Coordinates
30° 41' 59" N , 51° 33' 10" E
KCC
Metar
Observation
OISY 041600Z 08004KT 9999 SCT040 BKN080 09/02 Q1022
Station
Yasouj / National
Date/Time
2022-12-04 16:00:00
Wind direction
80°
Wind speed
04 kts
Lowest cloud amount
scattered clouds
Temperature
9°C
Dew point
2°C
Humidity
61%
QNH
1022 hPa
Weather condition
n/a

Airport serving the city of Yasuj, Iran.

Climatology

Mediterranean climate (Köppen climate classification Csa). Hot summers and frequent rain in the winter months.

Runways

Designator Length Width Surface Rops
13/31 2598 45 ASP No/No

Airport map

Aerial View

SKYbrary Partners:

Safety knowledge contributed by: